Terminal Aerodrome Forecast
Issued by NWS Shreveport, LA

Current Version | Previous Version | Text Only | Print | Product List | Glossary On
Versions: 1 2 3 4 5 6 7 8 9 10 11 12 13 14 15 16 17 18 19 20 21 22 23 24 25 26 27 28 29 30 31 32
216
FTUS44 KSHV 201124
TAFTXK
TAF
KTXK 201124Z 2012/2112 17012G20KT P6SM VCSH BKN025 OVC050
      TEMPO 2012/2016 17008KT 5SM SHRA BR OVC015
     FM201600 18015G25KT P6SM SCT030 BKN050
     FM210100 21012G20KT P6SM VCTS BKN030CB
     FM210700 33008KT 3SM TSRA BR OVC015CB=

USA.gov is the U.S. government's official web portal to all federal, state and local government web resources and services.